sensor_id;sensor_type;location;lat;lon;timestamp;P1;durP1;ratioP1;P2;durP2;ratioP2
71116;SDS011;58775;46.992;9.518;2023-03-02T00:00:49;33.03;;;12.38;;
71116;SDS011;58775;46.992;9.518;2023-03-02T00:02:50;32.45;;;13.68;;
71116;SDS011;58775;46.992;9.518;2023-03-02T00:04:52;29.20;;;12.18;;
71116;SDS011;58775;46.992;9.518;2023-03-02T00:06:57;28.98;;;12.85;;
71116;SDS011;58775;46.992;9.518;2023-03-02T00:09:01;28.73;;;12.43;;
71116;SDS011;58775;46.992;9.518;2023-03-02T00:11:04;27.90;;;11.38;;
71116;SDS011;58775;46.992;9.518;2023-03-02T00:13:05;28.85;;;12.10;;
71116;SDS011;58775;46.992;9.518;2023-03-02T00:15:06;29.55;;;12.20;;
71116;SDS011;58775;46.992;9.518;2023-03-02T00:17:08;30.80;;;11.63;;
71116;SDS011;58775;46.992;9.518;2023-03-02T00:19:09;28.75;;;12.43;;
71116;SDS011;58775;46.992;9.518;2023-03-02T00:21:10;29.77;;;12.07;;
71116;SDS011;58775;46.992;9.518;2023-03-02T00:23:13;26.25;;;12.35;;
71116;SDS011;58775;46.992;9.518;2023-03-02T00:25:15;26.65;;;11.43;;
71116;SDS011;58775;46.992;9.518;2023-03-02T00:27:16;27.70;;;11.43;;
71116;SDS011;58775;46.992;9.518;2023-03-02T00:29:17;31.75;;;12.38;;
71116;SDS011;58775;46.992;9.518;2023-03-02T00:31:18;29.42;;;12.95;;
71116;SDS011;58775;46.992;9.518;2023-03-02T00:33:19;28.83;;;11.77;;
71116;SDS011;58775;46.992;9.518;2023-03-02T00:35:20;29.63;;;11.70;;
71116;SDS011;58775;46.992;9.518;2023-03-02T00:37:21;28.63;;;12.50;;
71116;SDS011;58775;46.992;9.518;2023-03-02T00:39:22;33.67;;;13.23;;
71116;SDS011;58775;46.992;9.518;2023-03-02T00:41:23;31.97;;;12.63;;
71116;SDS011;58775;46.992;9.518;2023-03-02T00:43:24;32.45;;;12.27;;
71116;SDS011;58775;46.992;9.518;2023-03-02T00:45:27;24.40;;;10.23;;
71116;SDS011;58775;46.992;9.518;2023-03-02T00:47:28;25.63;;;11.07;;
71116;SDS011;58775;46.992;9.518;2023-03-02T00:49:29;28.77;;;11.17;;
71116;SDS011;58775;46.992;9.518;2023-03-02T00:51:30;31.35;;;12.73;;
71116;SDS011;58775;46.992;9.518;2023-03-02T00:53:32;27.05;;;11.75;;
71116;SDS011;58775;46.992;9.518;2023-03-02T00:55:35;30.50;;;12.32;;
71116;SDS011;58775;46.992;9.518;2023-03-02T00:57:37;28.17;;;12.20;;
71116;SDS011;58775;46.992;9.518;2023-03-02T00:59:38;31.70;;;13.60;;
71116;SDS011;58775;46.992;9.518;2023-03-02T01:01:49;29.88;;;12.38;;
71116;SDS011;58775;46.992;9.518;2023-03-02T01:03:58;28.88;;;12.50;;
71116;SDS011;58775;46.992;9.518;2023-03-02T01:05:59;29.98;;;11.98;;
71116;SDS011;58775;46.992;9.518;2023-03-02T01:08:00;27.67;;;11.43;;
71116;SDS011;58775;46.992;9.518;2023-03-02T01:10:01;27.40;;;12.43;;
71116;SDS011;58775;46.992;9.518;2023-03-02T01:12:02;28.80;;;12.02;;
71116;SDS011;58775;46.992;9.518;2023-03-02T01:14:04;31.00;;;13.25;;
71116;SDS011;58775;46.992;9.518;2023-03-02T01:16:05;30.67;;;13.03;;
71116;SDS011;58775;46.992;9.518;2023-03-02T01:18:07;27.42;;;11.18;;
71116;SDS011;58775;46.992;9.518;2023-03-02T01:20:09;28.02;;;11.95;;
71116;SDS011;58775;46.992;9.518;2023-03-02T01:22:11;28.50;;;11.25;;
71116;SDS011;58775;46.992;9.518;2023-03-02T01:24:12;27.77;;;12.17;;
71116;SDS011;58775;46.992;9.518;2023-03-02T01:26:12;31.45;;;12.60;;
71116;SDS011;58775;46.992;9.518;2023-03-02T01:28:13;27.17;;;11.68;;
71116;SDS011;58775;46.992;9.518;2023-03-02T01:30:14;26.17;;;11.17;;
71116;SDS011;58775;46.992;9.518;2023-03-02T01:32:16;30.73;;;12.80;;
71116;SDS011;58775;46.992;9.518;2023-03-02T01:34:17;29.42;;;12.40;;
71116;SDS011;58775;46.992;9.518;2023-03-02T01:36:19;30.67;;;11.70;;
71116;SDS011;58775;46.992;9.518;2023-03-02T01:38:21;27.30;;;12.23;;
71116;SDS011;58775;46.992;9.518;2023-03-02T01:40:22;31.73;;;12.20;;
71116;SDS011;58775;46.992;9.518;2023-03-02T01:42:23;27.10;;;11.02;;
71116;SDS011;58775;46.992;9.518;2023-03-02T01:44:40;28.13;;;11.73;;
71116;SDS011;58775;46.992;9.518;2023-03-02T01:46:42;31.10;;;12.85;;
71116;SDS011;58775;46.992;9.518;2023-03-02T01:48:47;28.02;;;12.00;;
71116;SDS011;58775;46.992;9.518;2023-03-02T01:51:03;32.00;;;12.65;;
71116;SDS011;58775;46.992;9.518;2023-03-02T01:53:06;28.33;;;11.57;;
71116;SDS011;58775;46.992;9.518;2023-03-02T01:55:08;30.67;;;11.80;;
71116;SDS011;58775;46.992;9.518;2023-03-02T01:57:15;30.67;;;11.88;;
71116;SDS011;58775;46.992;9.518;2023-03-02T01:59:30;34.17;;;12.73;;
71116;SDS011;58775;46.992;9.518;2023-03-02T02:01:33;28.38;;;11.75;;
71116;SDS011;58775;46.992;9.518;2023-03-02T02:03:39;30.63;;;12.27;;
71116;SDS011;58775;46.992;9.518;2023-03-02T02:06:05;26.23;;;12.00;;
71116;SDS011;58775;46.992;9.518;2023-03-02T02:08:22;30.45;;;11.55;;
71116;SDS011;58775;46.992;9.518;2023-03-02T02:10:23;29.60;;;11.90;;
71116;SDS011;58775;46.992;9.518;2023-03-02T02:12:25;29.58;;;11.18;;
71116;SDS011;58775;46.992;9.518;2023-03-02T02:14:27;26.30;;;10.87;;
71116;SDS011;58775;46.992;9.518;2023-03-02T02:16:30;31.00;;;11.93;;
71116;SDS011;58775;46.992;9.518;2023-03-02T02:18:33;33.28;;;13.52;;
71116;SDS011;58775;46.992;9.518;2023-03-02T02:20:40;29.90;;;11.60;;
71116;SDS011;58775;46.992;9.518;2023-03-02T02:25:21;30.33;;;11.37;;
71116;SDS011;58775;46.992;9.518;2023-03-02T02:27:33;31.35;;;10.98;;
71116;SDS011;58775;46.992;9.518;2023-03-02T02:29:36;30.92;;;11.68;;
71116;SDS011;58775;46.992;9.518;2023-03-02T02:31:46;27.63;;;11.18;;
71116;SDS011;58775;46.992;9.518;2023-03-02T02:33:55;26.60;;;11.10;;
71116;SDS011;58775;46.992;9.518;2023-03-02T02:36:07;30.27;;;12.13;;
71116;SDS011;58775;46.992;9.518;2023-03-02T02:38:14;30.05;;;12.13;;
71116;SDS011;58775;46.992;9.518;2023-03-02T02:40:41;35.85;;;12.32;;
71116;SDS011;58775;46.992;9.518;2023-03-02T02:42:54;26.35;;;10.93;;
71116;SDS011;58775;46.992;9.518;2023-03-02T02:44:57;30.52;;;11.75;;
71116;SDS011;58775;46.992;9.518;2023-03-02T02:47:00;26.80;;;12.23;;
71116;SDS011;58775;46.992;9.518;2023-03-02T02:49:02;29.50;;;12.52;;
71116;SDS011;58775;46.992;9.518;2023-03-02T02:51:04;26.92;;;11.50;;
71116;SDS011;58775;46.992;9.518;2023-03-02T02:53:15;23.95;;;10.50;;
71116;SDS011;58775;46.992;9.518;2023-03-02T02:55:20;28.00;;;11.03;;
71116;SDS011;58775;46.992;9.518;2023-03-02T02:57:26;24.92;;;9.85;;
71116;SDS011;58775;46.992;9.518;2023-03-02T02:59:33;28.08;;;10.77;;
71116;SDS011;58775;46.992;9.518;2023-03-02T03:01:39;26.05;;;10.50;;
71116;SDS011;58775;46.992;9.518;2023-03-02T03:03:41;24.17;;;10.40;;
71116;SDS011;58775;46.992;9.518;2023-03-02T03:05:59;33.07;;;12.47;;
71116;SDS011;58775;46.992;9.518;2023-03-02T03:08:09;26.33;;;11.35;;
71116;SDS011;58775;46.992;9.518;2023-03-02T03:10:57;23.23;;;9.30;;
71116;SDS011;58775;46.992;9.518;2023-03-02T03:12:58;26.60;;;11.38;;
71116;SDS011;58775;46.992;9.518;2023-03-02T03:15:02;27.08;;;11.80;;
71116;SDS011;58775;46.992;9.518;2023-03-02T03:17:03;26.47;;;10.40;;
71116;SDS011;58775;46.992;9.518;2023-03-02T03:19:17;27.13;;;11.13;;
71116;SDS011;58775;46.992;9.518;2023-03-02T03:21:21;29.70;;;11.68;;
71116;SDS011;58775;46.992;9.518;2023-03-02T03:23:23;29.98;;;11.90;;
71116;SDS011;58775;46.992;9.518;2023-03-02T03:25:25;29.45;;;12.60;;
71116;SDS011;58775;46.992;9.518;2023-03-02T03:27:28;29.43;;;11.23;;
71116;SDS011;58775;46.992;9.518;2023-03-02T03:29:30;29.00;;;11.20;;
71116;SDS011;58775;46.992;9.518;2023-03-02T03:31:34;29.73;;;11.43;;
71116;SDS011;58775;46.992;9.518;2023-03-02T03:33:37;24.25;;;10.48;;
71116;SDS011;58775;46.992;9.518;2023-03-02T03:35:38;28.63;;;11.20;;
71116;SDS011;58775;46.992;9.518;2023-03-02T03:37:40;27.63;;;12.03;;
71116;SDS011;58775;46.992;9.518;2023-03-02T03:39:43;27.67;;;11.40;;
71116;SDS011;58775;46.992;9.518;2023-03-02T03:41:44;24.30;;;11.30;;
71116;SDS011;58775;46.992;9.518;2023-03-02T03:43:46;25.52;;;9.80;;
71116;SDS011;58775;46.992;9.518;2023-03-02T03:45:47;28.55;;;11.45;;
71116;SDS011;58775;46.992;9.518;2023-03-02T03:47:47;25.67;;;10.03;;
71116;SDS011;58775;46.992;9.518;2023-03-02T03:49:49;28.58;;;11.07;;
71116;SDS011;58775;46.992;9.518;2023-03-02T03:51:49;22.20;;;9.00;;
71116;SDS011;58775;46.992;9.518;2023-03-02T03:53:51;24.23;;;10.52;;
71116;SDS011;58775;46.992;9.518;2023-03-02T03:56:06;26.87;;;9.63;;
71116;SDS011;58775;46.992;9.518;2023-03-02T03:58:08;28.70;;;10.35;;
71116;SDS011;58775;46.992;9.518;2023-03-02T04:00:10;23.35;;;10.13;;
71116;SDS011;58775;46.992;9.518;2023-03-02T04:02:23;23.17;;;9.80;;
71116;SDS011;58775;46.992;9.518;2023-03-02T04:04:26;25.77;;;10.30;;
71116;SDS011;58775;46.992;9.518;2023-03-02T04:06:29;25.80;;;10.30;;
71116;SDS011;58775;46.992;9.518;2023-03-02T04:08:30;27.85;;;11.88;;
71116;SDS011;58775;46.992;9.518;2023-03-02T04:10:31;28.67;;;12.00;;
71116;SDS011;58775;46.992;9.518;2023-03-02T04:12:33;24.85;;;10.05;;
71116;SDS011;58775;46.992;9.518;2023-03-02T04:14:39;26.75;;;10.50;;
71116;SDS011;58775;46.992;9.518;2023-03-02T04:16:39;22.33;;;9.47;;
71116;SDS011;58775;46.992;9.518;2023-03-02T04:18:41;26.60;;;10.48;;
71116;SDS011;58775;46.992;9.518;2023-03-02T04:20:43;25.05;;;9.77;;
71116;SDS011;58775;46.992;9.518;2023-03-02T04:22:44;26.10;;;10.13;;
71116;SDS011;58775;46.992;9.518;2023-03-02T04:24:48;28.13;;;11.02;;
71116;SDS011;58775;46.992;9.518;2023-03-02T04:26:50;25.90;;;10.13;;
71116;SDS011;58775;46.992;9.518;2023-03-02T04:28:52;28.65;;;10.25;;
71116;SDS011;58775;46.992;9.518;2023-03-02T04:30:53;26.27;;;10.57;;
71116;SDS011;58775;46.992;9.518;2023-03-02T04:32:54;22.95;;;9.45;;
71116;SDS011;58775;46.992;9.518;2023-03-02T04:34:57;26.65;;;11.35;;
71116;SDS011;58775;46.992;9.518;2023-03-02T04:37:00;23.40;;;9.10;;
71116;SDS011;58775;46.992;9.518;2023-03-02T04:39:01;28.63;;;10.30;;
71116;SDS011;58775;46.992;9.518;2023-03-02T04:41:03;23.50;;;9.93;;
71116;SDS011;58775;46.992;9.518;2023-03-02T04:43:04;25.33;;;10.63;;
71116;SDS011;58775;46.992;9.518;2023-03-02T04:45:06;25.77;;;10.48;;
71116;SDS011;58775;46.992;9.518;2023-03-02T04:47:08;22.98;;;9.32;;
71116;SDS011;58775;46.992;9.518;2023-03-02T04:49:10;26.75;;;10.55;;
71116;SDS011;58775;46.992;9.518;2023-03-02T04:51:18;23.58;;;10.65;;
71116;SDS011;58775;46.992;9.518;2023-03-02T04:53:24;28.42;;;11.70;;
71116;SDS011;58775;46.992;9.518;2023-03-02T04:55:26;26.97;;;10.43;;
71116;SDS011;58775;46.992;9.518;2023-03-02T04:57:27;26.73;;;11.18;;
71116;SDS011;58775;46.992;9.518;2023-03-02T04:59:28;28.55;;;11.73;;
71116;SDS011;58775;46.992;9.518;2023-03-02T05:01:29;24.25;;;10.60;;
71116;SDS011;58775;46.992;9.518;2023-03-02T05:03:30;25.70;;;10.57;;
71116;SDS011;58775;46.992;9.518;2023-03-02T05:05:31;26.73;;;10.95;;
71116;SDS011;58775;46.992;9.518;2023-03-02T05:07:32;27.70;;;10.15;;
71116;SDS011;58775;46.992;9.518;2023-03-02T05:09:33;25.52;;;9.75;;
71116;SDS011;58775;46.992;9.518;2023-03-02T05:11:34;25.13;;;9.80;;
71116;SDS011;58775;46.992;9.518;2023-03-02T05:13:35;25.05;;;10.20;;
71116;SDS011;58775;46.992;9.518;2023-03-02T05:15:37;27.42;;;10.85;;
71116;SDS011;58775;46.992;9.518;2023-03-02T05:17:39;29.47;;;10.23;;
71116;SDS011;58775;46.992;9.518;2023-03-02T05:19:40;19.55;;;8.70;;
71116;SDS011;58775;46.992;9.518;2023-03-02T05:21:42;25.02;;;9.88;;
71116;SDS011;58775;46.992;9.518;2023-03-02T05:23:43;27.20;;;10.10;;
71116;SDS011;58775;46.992;9.518;2023-03-02T05:25:44;23.67;;;9.20;;
71116;SDS011;58775;46.992;9.518;2023-03-02T05:27:45;21.33;;;8.80;;
71116;SDS011;58775;46.992;9.518;2023-03-02T05:29:46;24.55;;;10.73;;
71116;SDS011;58775;46.992;9.518;2023-03-02T05:31:47;23.77;;;9.90;;
71116;SDS011;58775;46.992;9.518;2023-03-02T05:33:49;24.33;;;9.40;;
71116;SDS011;58775;46.992;9.518;2023-03-02T05:35:50;24.02;;;10.07;;
71116;SDS011;58775;46.992;9.518;2023-03-02T05:37:50;25.40;;;10.60;;
71116;SDS011;58775;46.992;9.518;2023-03-02T05:39:52;24.02;;;10.75;;
71116;SDS011;58775;46.992;9.518;2023-03-02T05:41:53;25.73;;;9.87;;
71116;SDS011;58775;46.992;9.518;2023-03-02T05:43:54;20.23;;;9.15;;
71116;SDS011;58775;46.992;9.518;2023-03-02T05:45:55;27.38;;;11.75;;
71116;SDS011;58775;46.992;9.518;2023-03-02T05:47:59;29.92;;;10.88;;
71116;SDS011;58775;46.992;9.518;2023-03-02T05:50:01;24.83;;;10.30;;
71116;SDS011;58775;46.992;9.518;2023-03-02T05:52:01;28.02;;;11.27;;
71116;SDS011;58775;46.992;9.518;2023-03-02T05:54:02;25.75;;;11.13;;
71116;SDS011;58775;46.992;9.518;2023-03-02T05:56:03;24.55;;;10.85;;
71116;SDS011;58775;46.992;9.518;2023-03-02T05:58:05;25.17;;;9.67;;
71116;SDS011;58775;46.992;9.518;2023-03-02T06:00:09;26.25;;;10.98;;
71116;SDS011;58775;46.992;9.518;2023-03-02T06:02:14;25.20;;;10.07;;
71116;SDS011;58775;46.992;9.518;2023-03-02T06:04:15;27.10;;;10.52;;
71116;SDS011;58775;46.992;9.518;2023-03-02T06:06:16;23.77;;;9.90;;
71116;SDS011;58775;46.992;9.518;2023-03-02T06:08:17;23.20;;;9.52;;
71116;SDS011;58775;46.992;9.518;2023-03-02T06:10:20;24.48;;;9.88;;
71116;SDS011;58775;46.992;9.518;2023-03-02T06:12:22;26.25;;;9.95;;
71116;SDS011;58775;46.992;9.518;2023-03-02T06:14:23;30.53;;;10.70;;
71116;SDS011;58775;46.992;9.518;2023-03-02T06:16:23;27.30;;;11.35;;
71116;SDS011;58775;46.992;9.518;2023-03-02T06:18:24;28.45;;;10.88;;
71116;SDS011;58775;46.992;9.518;2023-03-02T06:20:25;26.27;;;10.27;;
71116;SDS011;58775;46.992;9.518;2023-03-02T06:22:26;25.30;;;9.97;;
71116;SDS011;58775;46.992;9.518;2023-03-02T06:24:27;24.30;;;11.15;;
71116;SDS011;58775;46.992;9.518;2023-03-02T06:26:28;26.67;;;10.38;;
71116;SDS011;58775;46.992;9.518;2023-03-02T06:28:29;26.80;;;10.40;;
71116;SDS011;58775;46.992;9.518;2023-03-02T06:30:30;28.58;;;10.55;;
71116;SDS011;58775;46.992;9.518;2023-03-02T06:32:31;26.30;;;10.40;;
71116;SDS011;58775;46.992;9.518;2023-03-02T06:34:33;27.43;;;11.40;;
71116;SDS011;58775;46.992;9.518;2023-03-02T06:36:35;27.42;;;11.82;;
71116;SDS011;58775;46.992;9.518;2023-03-02T06:38:38;27.80;;;10.95;;
71116;SDS011;58775;46.992;9.518;2023-03-02T06:40:39;23.42;;;9.68;;
71116;SDS011;58775;46.992;9.518;2023-03-02T06:42:40;23.88;;;11.02;;
71116;SDS011;58775;46.992;9.518;2023-03-02T06:44:42;24.92;;;10.40;;
71116;SDS011;58775;46.992;9.518;2023-03-02T06:46:43;27.10;;;10.38;;
71116;SDS011;58775;46.992;9.518;2023-03-02T06:48:44;25.20;;;10.35;;
71116;SDS011;58775;46.992;9.518;2023-03-02T06:50:45;29.23;;;11.13;;
71116;SDS011;58775;46.992;9.518;2023-03-02T06:52:46;26.13;;;10.93;;
71116;SDS011;58775;46.992;9.518;2023-03-02T06:54:47;28.27;;;11.45;;
71116;SDS011;58775;46.992;9.518;2023-03-02T06:56:48;24.67;;;10.18;;
71116;SDS011;58775;46.992;9.518;2023-03-02T06:58:49;26.43;;;11.80;;
71116;SDS011;58775;46.992;9.518;2023-03-02T07:00:50;30.02;;;11.63;;
71116;SDS011;58775;46.992;9.518;2023-03-02T07:02:51;26.15;;;10.68;;
71116;SDS011;58775;46.992;9.518;2023-03-02T07:04:53;25.90;;;11.30;;
71116;SDS011;58775;46.992;9.518;2023-03-02T07:06:54;29.43;;;11.77;;
71116;SDS011;58775;46.992;9.518;2023-03-02T07:08:55;27.95;;;10.90;;
71116;SDS011;58775;46.992;9.518;2023-03-02T07:10:56;29.02;;;10.85;;
71116;SDS011;58775;46.992;9.518;2023-03-02T07:12:57;27.23;;;11.25;;
71116;SDS011;58775;46.992;9.518;2023-03-02T07:14:58;28.50;;;11.40;;
71116;SDS011;58775;46.992;9.518;2023-03-02T07:16:59;24.95;;;10.65;;
71116;SDS011;58775;46.992;9.518;2023-03-02T07:19:00;25.77;;;10.15;;
71116;SDS011;58775;46.992;9.518;2023-03-02T07:21:01;26.23;;;11.32;;
71116;SDS011;58775;46.992;9.518;2023-03-02T07:23:03;26.23;;;11.10;;
71116;SDS011;58775;46.992;9.518;2023-03-02T07:25:05;26.42;;;10.88;;
71116;SDS011;58775;46.992;9.518;2023-03-02T07:27:07;22.67;;;9.88;;
71116;SDS011;58775;46.992;9.518;2023-03-02T07:29:08;26.73;;;10.68;;
71116;SDS011;58775;46.992;9.518;2023-03-02T07:31:09;21.30;;;10.43;;
71116;SDS011;58775;46.992;9.518;2023-03-02T07:33:11;24.17;;;10.00;;
71116;SDS011;58775;46.992;9.518;2023-03-02T07:35:12;24.98;;;10.68;;
71116;SDS011;58775;46.992;9.518;2023-03-02T07:37:13;25.10;;;10.77;;
71116;SDS011;58775;46.992;9.518;2023-03-02T07:39:15;31.50;;;13.13;;
71116;SDS011;58775;46.992;9.518;2023-03-02T07:41:16;29.08;;;12.05;;
71116;SDS011;58775;46.992;9.518;2023-03-02T07:43:17;29.43;;;12.93;;
71116;SDS011;58775;46.992;9.518;2023-03-02T07:45:18;28.00;;;13.20;;
71116;SDS011;58775;46.992;9.518;2023-03-02T07:47:21;30.80;;;11.82;;
71116;SDS011;58775;46.992;9.518;2023-03-02T07:49:22;32.33;;;13.23;;
71116;SDS011;58775;46.992;9.518;2023-03-02T07:51:23;33.55;;;13.32;;
71116;SDS011;58775;46.992;9.518;2023-03-02T07:53:25;32.53;;;13.73;;
71116;SDS011;58775;46.992;9.518;2023-03-02T07:55:26;29.77;;;12.73;;
71116;SDS011;58775;46.992;9.518;2023-03-02T07:57:27;30.20;;;12.75;;
71116;SDS011;58775;46.992;9.518;2023-03-02T07:59:28;32.00;;;13.18;;
71116;SDS011;58775;46.992;9.518;2023-03-02T08:01:29;28.70;;;12.30;;
71116;SDS011;58775;46.992;9.518;2023-03-02T08:03:30;29.63;;;12.75;;
71116;SDS011;58775;46.992;9.518;2023-03-02T08:05:31;34.40;;;13.85;;
71116;SDS011;58775;46.992;9.518;2023-03-02T08:07:32;29.80;;;12.83;;
71116;SDS011;58775;46.992;9.518;2023-03-02T08:09:33;33.95;;;14.40;;
71116;SDS011;58775;46.992;9.518;2023-03-02T08:11:34;30.20;;;13.50;;
71116;SDS011;58775;46.992;9.518;2023-03-02T08:13:35;28.27;;;13.30;;
71116;SDS011;58775;46.992;9.518;2023-03-02T08:15:36;31.10;;;12.63;;
71116;SDS011;58775;46.992;9.518;2023-03-02T08:17:37;27.77;;;13.15;;
71116;SDS011;58775;46.992;9.518;2023-03-02T08:19:38;28.55;;;13.20;;
71116;SDS011;58775;46.992;9.518;2023-03-02T08:21:39;33.33;;;14.93;;
71116;SDS011;58775;46.992;9.518;2023-03-02T08:23:40;30.17;;;12.10;;
71116;SDS011;58775;46.992;9.518;2023-03-02T08:25:41;26.63;;;13.25;;
71116;SDS011;58775;46.992;9.518;2023-03-02T08:27:42;30.10;;;13.32;;
71116;SDS011;58775;46.992;9.518;2023-03-02T08:29:45;30.65;;;13.00;;
71116;SDS011;58775;46.992;9.518;2023-03-02T08:31:46;28.43;;;12.97;;
71116;SDS011;58775;46.992;9.518;2023-03-02T08:33:47;31.65;;;14.55;;
71116;SDS011;58775;46.992;9.518;2023-03-02T08:35:55;32.92;;;13.10;;
71116;SDS011;58775;46.992;9.518;2023-03-02T08:38:01;30.67;;;13.13;;
71116;SDS011;58775;46.992;9.518;2023-03-02T08:40:02;28.13;;;13.48;;
71116;SDS011;58775;46.992;9.518;2023-03-02T08:42:03;31.60;;;13.05;;
71116;SDS011;58775;46.992;9.518;2023-03-02T08:44:04;29.65;;;12.60;;
71116;SDS011;58775;46.992;9.518;2023-03-02T08:46:05;32.53;;;13.45;;
71116;SDS011;58775;46.992;9.518;2023-03-02T08:48:07;28.13;;;12.43;;
71116;SDS011;58775;46.992;9.518;2023-03-02T08:50:08;27.95;;;13.13;;
71116;SDS011;58775;46.992;9.518;2023-03-02T08:52:10;26.88;;;12.55;;
71116;SDS011;58775;46.992;9.518;2023-03-02T08:54:14;27.88;;;13.02;;
71116;SDS011;58775;46.992;9.518;2023-03-02T08:56:19;34.15;;;14.38;;
71116;SDS011;58775;46.992;9.518;2023-03-02T08:58:25;28.10;;;13.20;;
71116;SDS011;58775;46.992;9.518;2023-03-02T09:00:26;29.23;;;13.30;;
71116;SDS011;58775;46.992;9.518;2023-03-02T09:02:27;32.03;;;13.77;;
71116;SDS011;58775;46.992;9.518;2023-03-02T09:04:28;32.05;;;13.68;;
71116;SDS011;58775;46.992;9.518;2023-03-02T09:06:29;30.50;;;13.93;;
71116;SDS011;58775;46.992;9.518;2023-03-02T09:08:35;28.35;;;14.18;;
71116;SDS011;58775;46.992;9.518;2023-03-02T09:10:36;29.48;;;14.07;;
71116;SDS011;58775;46.992;9.518;2023-03-02T09:12:37;30.10;;;13.20;;
71116;SDS011;58775;46.992;9.518;2023-03-02T09:14:38;28.00;;;14.07;;
71116;SDS011;58775;46.992;9.518;2023-03-02T09:16:39;30.05;;;12.60;;
71116;SDS011;58775;46.992;9.518;2023-03-02T09:18:40;33.95;;;15.57;;
71116;SDS011;58775;46.992;9.518;2023-03-02T09:20:41;31.83;;;14.27;;
71116;SDS011;58775;46.992;9.518;2023-03-02T09:22:42;26.47;;;13.33;;
71116;SDS011;58775;46.992;9.518;2023-03-02T09:24:48;27.00;;;13.07;;
71116;SDS011;58775;46.992;9.518;2023-03-02T09:26:49;27.05;;;13.68;;
71116;SDS011;58775;46.992;9.518;2023-03-02T09:28:50;29.33;;;13.88;;
71116;SDS011;58775;46.992;9.518;2023-03-02T09:30:52;28.88;;;13.75;;
71116;SDS011;58775;46.992;9.518;2023-03-02T09:32:56;29.23;;;13.67;;
71116;SDS011;58775;46.992;9.518;2023-03-02T09:34:57;31.25;;;12.88;;
71116;SDS011;58775;46.992;9.518;2023-03-02T09:36:58;29.48;;;13.38;;
71116;SDS011;58775;46.992;9.518;2023-03-02T09:38:59;28.50;;;13.13;;
71116;SDS011;58775;46.992;9.518;2023-03-02T09:41:06;30.17;;;13.90;;
71116;SDS011;58775;46.992;9.518;2023-03-02T09:43:32;28.73;;;14.25;;
71116;SDS011;58775;46.992;9.518;2023-03-02T09:46:02;28.35;;;13.20;;
71116;SDS011;58775;46.992;9.518;2023-03-02T09:48:14;30.17;;;13.70;;
71116;SDS011;58775;46.992;9.518;2023-03-02T09:52:35;28.95;;;14.15;;
71116;SDS011;58775;46.992;9.518;2023-03-02T09:54:40;30.52;;;14.65;;
71116;SDS011;58775;46.992;9.518;2023-03-02T09:56:44;28.40;;;13.90;;
71116;SDS011;58775;46.992;9.518;2023-03-02T09:58:54;29.98;;;13.77;;
71116;SDS011;58775;46.992;9.518;2023-03-02T10:01:08;28.75;;;13.85;;
71116;SDS011;58775;46.992;9.518;2023-03-02T10:03:18;28.75;;;14.20;;
71116;SDS011;58775;46.992;9.518;2023-03-02T10:05:29;32.50;;;13.82;;
71116;SDS011;58775;46.992;9.518;2023-03-02T10:07:37;27.75;;;13.68;;
71116;SDS011;58775;46.992;9.518;2023-03-02T10:09:39;29.67;;;14.82;;
71116;SDS011;58775;46.992;9.518;2023-03-02T10:21:00;27.80;;;12.60;;
71116;SDS011;58775;46.992;9.518;2023-03-02T10:23:17;28.45;;;13.82;;
71116;SDS011;58775;46.992;9.518;2023-03-02T10:27:55;27.50;;;13.10;;
71116;SDS011;58775;46.992;9.518;2023-03-02T10:30:15;29.30;;;13.77;;
71116;SDS011;58775;46.992;9.518;2023-03-02T10:32:30;29.67;;;13.60;;
71116;SDS011;58775;46.992;9.518;2023-03-02T10:34:35;29.48;;;14.23;;
71116;SDS011;58775;46.992;9.518;2023-03-02T10:36:38;29.67;;;14.80;;
71116;SDS011;58775;46.992;9.518;2023-03-02T10:38:41;30.48;;;14.32;;
71116;SDS011;58775;46.992;9.518;2023-03-02T10:40:46;31.80;;;15.00;;
71116;SDS011;58775;46.992;9.518;2023-03-02T10:42:56;27.45;;;14.00;;
71116;SDS011;58775;46.992;9.518;2023-03-02T10:47:37;29.50;;;13.65;;
71116;SDS011;58775;46.992;9.518;2023-03-02T10:49:41;31.88;;;14.63;;
71116;SDS011;58775;46.992;9.518;2023-03-02T10:51:42;31.13;;;14.45;;
71116;SDS011;58775;46.992;9.518;2023-03-02T10:53:43;29.07;;;14.20;;
71116;SDS011;58775;46.992;9.518;2023-03-02T10:55:45;30.75;;;15.23;;
71116;SDS011;58775;46.992;9.518;2023-03-02T10:58:01;30.02;;;14.13;;
71116;SDS011;58775;46.992;9.518;2023-03-02T11:02:23;28.33;;;12.82;;
71116;SDS011;58775;46.992;9.518;2023-03-02T11:04:27;31.55;;;14.00;;
71116;SDS011;58775;46.992;9.518;2023-03-02T11:06:29;32.47;;;14.25;;
71116;SDS011;58775;46.992;9.518;2023-03-02T11:08:30;29.45;;;14.27;;
71116;SDS011;58775;46.992;9.518;2023-03-02T11:10:33;31.63;;;13.90;;
71116;SDS011;58775;46.992;9.518;2023-03-02T11:12:36;29.73;;;13.95;;
71116;SDS011;58775;46.992;9.518;2023-03-02T11:14:37;26.63;;;12.52;;
71116;SDS011;58775;46.992;9.518;2023-03-02T11:16:38;28.70;;;13.73;;
71116;SDS011;58775;46.992;9.518;2023-03-02T11:18:47;29.35;;;14.13;;
71116;SDS011;58775;46.992;9.518;2023-03-02T11:21:16;29.77;;;14.00;;
71116;SDS011;58775;46.992;9.518;2023-03-02T11:23:53;31.55;;;14.63;;
71116;SDS011;58775;46.992;9.518;2023-03-02T11:28:33;28.85;;;13.45;;
71116;SDS011;58775;46.992;9.518;2023-03-02T11:30:35;28.77;;;13.85;;
71116;SDS011;58775;46.992;9.518;2023-03-02T11:34:48;27.02;;;13.07;;
71116;SDS011;58775;46.992;9.518;2023-03-02T11:36:58;28.08;;;13.73;;
71116;SDS011;58775;46.992;9.518;2023-03-02T11:39:01;29.35;;;14.05;;
71116;SDS011;58775;46.992;9.518;2023-03-02T11:43:18;27.40;;;13.27;;
71116;SDS011;58775;46.992;9.518;2023-03-02T11:45:20;32.78;;;13.32;;
71116;SDS011;58775;46.992;9.518;2023-03-02T11:47:24;23.83;;;12.45;;
71116;SDS011;58775;46.992;9.518;2023-03-02T11:49:31;27.55;;;13.38;;
71116;SDS011;58775;46.992;9.518;2023-03-02T11:51:38;29.77;;;13.80;;
71116;SDS011;58775;46.992;9.518;2023-03-02T11:55:51;29.98;;;14.05;;
71116;SDS011;58775;46.992;9.518;2023-03-02T11:57:55;30.88;;;13.25;;
71116;SDS011;58775;46.992;9.518;2023-03-02T12:00:13;27.85;;;13.18;;
71116;SDS011;58775;46.992;9.518;2023-03-02T12:02:30;26.50;;;13.85;;
71116;SDS011;58775;46.992;9.518;2023-03-02T12:04:32;28.23;;;13.77;;
71116;SDS011;58775;46.992;9.518;2023-03-02T12:06:38;26.55;;;13.00;;
71116;SDS011;58775;46.992;9.518;2023-03-02T12:08:41;25.08;;;12.98;;
71116;SDS011;58775;46.992;9.518;2023-03-02T12:13:05;25.27;;;12.80;;
71116;SDS011;58775;46.992;9.518;2023-03-02T12:15:34;27.27;;;12.93;;
71116;SDS011;58775;46.992;9.518;2023-03-02T12:17:43;25.42;;;13.02;;
71116;SDS011;58775;46.992;9.518;2023-03-02T12:19:44;24.90;;;12.60;;
71116;SDS011;58775;46.992;9.518;2023-03-02T12:21:57;26.20;;;13.60;;
71116;SDS011;58775;46.992;9.518;2023-03-02T12:24:05;28.05;;;13.02;;
71116;SDS011;58775;46.992;9.518;2023-03-02T12:28:56;25.03;;;13.13;;
71116;SDS011;58775;46.992;9.518;2023-03-02T12:31:03;28.83;;;12.75;;
71116;SDS011;58775;46.992;9.518;2023-03-02T12:33:18;25.20;;;11.95;;
71116;SDS011;58775;46.992;9.518;2023-03-02T12:35:21;26.55;;;12.02;;
71116;SDS011;58775;46.992;9.518;2023-03-02T12:40:08;27.50;;;13.50;;
71116;SDS011;58775;46.992;9.518;2023-03-02T12:47:19;29.23;;;13.50;;
71116;SDS011;58775;46.992;9.518;2023-03-02T12:51:28;28.33;;;13.97;;